»·PEaware :: N80HC KUDD-KSNA

N80HC :: KUDD-KSNA

FLIGHT INFORMATION

Flight Status: Arrived
Operator: Privately registered:
United States
More flights under this callsign
Pilot: Saso K. (7898)
Aircraft: BEECH AIRCRAFT BARON
(BE58)
More flights by this aircraft type
Origin: KUDD Bermuda Dunes
United States
Destination: KSNA John Wayne-Orange Co
United States
More flights between these airports :: More routes between these airports
Route: +TRM PSP V388 ACINS V283 SLI
File this flight plan on PilotEdge
Remarks: TEC ROUTE PSPN8A
Altitude:
(Current/Filed)
10,000ft
Speed:
(Current/Filed)
195kts
Departed: 09-Apr-17 01:57 PM
Arrived: 09-Apr-17 02:46 PM
Distance/Time
Traveled:
80nm/0:48
Distance/Time
To Go:
Arrived

Flight Plot

Page will automatically refresh every two minutes.


Map Options




Map Legend


Flown Route
Filed Route
Departure Airport
Arrival Airport
Navaid (VOR, NDB)
Fix

Horizontal Profiles

Position Reports

Time Latitude Longitude Heading Altitude Ground
Speed
09-Apr-17 13:44 33.744819 -116.269583 269 56ft 0kts
09-Apr-17 13:45 33.744819 -116.269583 269 56ft 0kts
09-Apr-17 13:46 33.744819 -116.269583 269 56ft 0kts
09-Apr-17 13:47 33.744819 -116.269583 269 56ft 0kts
09-Apr-17 13:48 33.744819 -116.269583 269 56ft 0kts
09-Apr-17 13:49 33.744819 -116.269583 269 56ft 0kts
09-Apr-17 13:50 33.744819 -116.269583 269 56ft 0kts
09-Apr-17 13:51 33.744819 -116.269583 269 56ft 0kts
09-Apr-17 13:52 33.744819 -116.269583 269 56ft 0kts
09-Apr-17 13:53 33.745456 -116.269780 358 55ft 6kts
09-Apr-17 13:54 33.744874 -116.267426 117 54ft 2kts
09-Apr-17 13:55 33.744934 -116.267373 344 54ft 0kts
09-Apr-17 13:56 33.744933 -116.267372 344 54ft 0kts
09-Apr-17 13:57 33.744933 -116.267372 344 54ft 0kts
09-Apr-17 13:58 33.749019 -116.276318 297 91ft 116kts
09-Apr-17 13:59 33.752958 -116.311500 204 1466ft 125kts
09-Apr-17 14:00 33.735664 -116.278758 111 2478ft 140kts
09-Apr-17 14:01 33.708838 -116.245324 136 3693ft 139kts
09-Apr-17 14:02 33.678683 -116.216091 134 4888ft 143kts
09-Apr-17 14:05 33.647447 -116.134177 300 5036ft 156kts
09-Apr-17 14:06 33.665408 -116.176395 296 6096ft 139kts
09-Apr-17 14:07 33.679960 -116.196700 315 6745ft 132kts
09-Apr-17 14:08 33.706788 -116.225930 316 7670ft 136kts
09-Apr-17 14:09 33.732008 -116.255880 313 8882ft 129kts
09-Apr-17 14:10 33.757117 -116.287088 312 9962ft 132kts
09-Apr-17 14:11 33.786249 -116.323865 312 10030ft 169kts
09-Apr-17 14:12 33.820098 -116.366588 312 10031ft 181kts
09-Apr-17 14:13 33.855004 -116.410738 312 10017ft 184kts
09-Apr-17 14:14 33.878474 -116.463255 286 10017ft 182kts
09-Apr-17 14:15 33.893371 -116.521509 286 10017ft 182kts
09-Apr-17 14:16 33.908108 -116.579474 286 10016ft 181kts
09-Apr-17 14:17 33.922533 -116.636413 286 10016ft 180kts
09-Apr-17 14:18 33.932366 -116.675334 286 10019ft 180kts
09-Apr-17 14:19 33.943815 -116.720837 286 9997ft 179kts
09-Apr-17 14:20 33.947314 -116.778629 269 9993ft 177kts
09-Apr-17 14:21 33.945411 -116.835986 269 9992ft 177kts
09-Apr-17 14:22 33.943430 -116.894644 269 9991ft 176kts
09-Apr-17 14:23 33.941439 -116.951882 269 9992ft 176kts
09-Apr-17 14:24 33.939418 -117.009165 269 9993ft 176kts
09-Apr-17 14:25 33.937373 -117.066383 269 9995ft 176kts
09-Apr-17 14:26 33.935286 -117.123970 269 9996ft 176kts
09-Apr-17 14:27 33.910097 -117.163916 195 10013ft 192kts
09-Apr-17 14:28 33.858293 -117.173105 191 10010ft 199kts
09-Apr-17 14:29 33.805753 -117.181013 191 10009ft 202kts
09-Apr-17 14:30 33.778402 -117.221140 269 10010ft 183kts
09-Apr-17 14:31 33.777669 -117.280900 272 10008ft 184kts
09-Apr-17 14:32 33.778058 -117.341426 272 10008ft 184kts
09-Apr-17 14:33 33.778650 -117.401707 272 10010ft 184kts
09-Apr-17 14:34 33.757775 -117.450184 193 9477ft 210kts
09-Apr-17 14:35 33.704810 -117.467819 211 8064ft 194kts
09-Apr-17 14:36 33.669255 -117.505323 231 8019ft 174kts
09-Apr-17 14:37 33.637498 -117.548109 231 8018ft 176kts
09-Apr-17 14:38 33.609374 -117.586602 231 8017ft 176kts
09-Apr-17 14:39 33.578028 -117.630378 239 8012ft 174kts
09-Apr-17 14:40 33.582071 -117.681107 281 6989ft 187kts
09-Apr-17 14:41 33.593283 -117.741184 281 5919ft 175kts
09-Apr-17 14:42 33.622471 -117.773768 328 4862ft 193kts
09-Apr-17 14:43 33.679608 -117.803423 338 2973ft 183kts
09-Apr-17 14:44 33.714411 -117.828330 287 1687ft 125kts
09-Apr-17 14:45 33.700685 -117.852672 210 699ft 108kts
09-Apr-17 14:46 33.673077 -117.870464 206 49ft 64kts
09-Apr-17 14:47 33.667717 -117.872369 35 52ft 10kts
09-Apr-17 14:48 33.671687 -117.868409 30 49ft 12kts
09-Apr-17 14:49 33.671653 -117.867513 212 49ft 3kts
09-Apr-17 14:50 33.671586 -117.867560 206 49ft 0kts

Navigation Log

Ident Type
1. KUDD Airport
2. TRM Navaid
3. PSP Navaid
4. DEWAY Fix
5. ACINS Fix
6. HDF Navaid
7. DEJAY Fix
8. KAYOH Fix
9. JOGIT Fix
10. SLI Navaid
11. KSNA Airport